sensor_id;sensor_type;location;lat;lon;timestamp;P1;durP1;ratioP1;P2;durP2;ratioP2
21675;SDS011;10999;51.332;9.458;2023-09-18T00:00:31;8.52;;;4.30;;
21675;SDS011;10999;51.332;9.458;2023-09-18T00:02:59;10.32;;;5.05;;
21675;SDS011;10999;51.332;9.458;2023-09-18T00:05:29;9.02;;;4.57;;
21675;SDS011;10999;51.332;9.458;2023-09-18T00:07:56;10.40;;;5.55;;
21675;SDS011;10999;51.332;9.458;2023-09-18T00:10:23;10.00;;;4.80;;
21675;SDS011;10999;51.332;9.458;2023-09-18T00:12:51;11.73;;;5.40;;
21675;SDS011;10999;51.332;9.458;2023-09-18T00:15:18;10.13;;;5.15;;
21675;SDS011;10999;51.332;9.458;2023-09-18T00:17:45;10.30;;;5.22;;
21675;SDS011;10999;51.332;9.458;2023-09-18T00:20:12;9.43;;;4.97;;
21675;SDS011;10999;51.332;9.458;2023-09-18T00:22:39;8.07;;;4.35;;
21675;SDS011;10999;51.332;9.458;2023-09-18T00:25:06;9.00;;;4.90;;
21675;SDS011;10999;51.332;9.458;2023-09-18T00:27:33;9.73;;;5.18;;
21675;SDS011;10999;51.332;9.458;2023-09-18T00:30:03;9.57;;;4.88;;
21675;SDS011;10999;51.332;9.458;2023-09-18T00:32:30;9.93;;;4.70;;
21675;SDS011;10999;51.332;9.458;2023-09-18T00:34:57;11.20;;;5.40;;
21675;SDS011;10999;51.332;9.458;2023-09-18T00:37:24;10.77;;;5.05;;
21675;SDS011;10999;51.332;9.458;2023-09-18T00:39:51;10.18;;;5.20;;
21675;SDS011;10999;51.332;9.458;2023-09-18T00:42:17;9.40;;;4.72;;
21675;SDS011;10999;51.332;9.458;2023-09-18T00:44:45;11.88;;;5.05;;
21675;SDS011;10999;51.332;9.458;2023-09-18T00:47:12;11.95;;;5.45;;
21675;SDS011;10999;51.332;9.458;2023-09-18T00:49:41;13.43;;;5.80;;
21675;SDS011;10999;51.332;9.458;2023-09-18T00:52:11;10.13;;;4.63;;
21675;SDS011;10999;51.332;9.458;2023-09-18T00:54:38;12.68;;;6.35;;
21675;SDS011;10999;51.332;9.458;2023-09-18T00:57:08;10.77;;;5.32;;
21675;SDS011;10999;51.332;9.458;2023-09-18T00:59:35;9.23;;;5.07;;
21675;SDS011;10999;51.332;9.458;2023-09-18T01:02:02;10.82;;;4.90;;
21675;SDS011;10999;51.332;9.458;2023-09-18T01:04:30;11.18;;;5.43;;
21675;SDS011;10999;51.332;9.458;2023-09-18T01:06:59;10.52;;;5.50;;
21675;SDS011;10999;51.332;9.458;2023-09-18T01:09:30;9.85;;;4.82;;
21675;SDS011;10999;51.332;9.458;2023-09-18T01:14:50;9.65;;;5.20;;
21675;SDS011;10999;51.332;9.458;2023-09-18T01:17:22;11.20;;;4.97;;
21675;SDS011;10999;51.332;9.458;2023-09-18T01:19:49;8.68;;;4.57;;
21675;SDS011;10999;51.332;9.458;2023-09-18T01:22:17;10.85;;;6.15;;
21675;SDS011;10999;51.332;9.458;2023-09-18T01:24:45;9.25;;;4.50;;
21675;SDS011;10999;51.332;9.458;2023-09-18T01:27:14;9.93;;;4.50;;
21675;SDS011;10999;51.332;9.458;2023-09-18T01:29:43;9.80;;;5.25;;
21675;SDS011;10999;51.332;9.458;2023-09-18T01:32:11;10.68;;;5.57;;
21675;SDS011;10999;51.332;9.458;2023-09-18T01:34:50;12.20;;;5.22;;
21675;SDS011;10999;51.332;9.458;2023-09-18T01:37:19;9.52;;;5.07;;
21675;SDS011;10999;51.332;9.458;2023-09-18T01:39:49;9.77;;;4.80;;
21675;SDS011;10999;51.332;9.458;2023-09-18T01:42:17;16.05;;;5.82;;
21675;SDS011;10999;51.332;9.458;2023-09-18T01:44:44;11.65;;;5.25;;
21675;SDS011;10999;51.332;9.458;2023-09-18T01:47:17;10.82;;;5.20;;
21675;SDS011;10999;51.332;9.458;2023-09-18T01:52:12;11.43;;;5.10;;
21675;SDS011;10999;51.332;9.458;2023-09-18T01:54:39;12.30;;;5.20;;
21675;SDS011;10999;51.332;9.458;2023-09-18T01:57:06;12.45;;;5.55;;
21675;SDS011;10999;51.332;9.458;2023-09-18T01:59:33;13.88;;;6.55;;
21675;SDS011;10999;51.332;9.458;2023-09-18T02:02:02;9.55;;;5.03;;
21675;SDS011;10999;51.332;9.458;2023-09-18T02:04:33;10.32;;;4.70;;
21675;SDS011;10999;51.332;9.458;2023-09-18T02:07:20;11.48;;;5.35;;
21675;SDS011;10999;51.332;9.458;2023-09-18T02:09:47;10.27;;;5.15;;
21675;SDS011;10999;51.332;9.458;2023-09-18T02:12:14;10.75;;;5.28;;
21675;SDS011;10999;51.332;9.458;2023-09-18T02:14:44;10.38;;;4.80;;
21675;SDS011;10999;51.332;9.458;2023-09-18T02:17:11;11.82;;;5.35;;
21675;SDS011;10999;51.332;9.458;2023-09-18T02:19:38;9.73;;;5.20;;
21675;SDS011;10999;51.332;9.458;2023-09-18T02:22:05;10.52;;;5.30;;
21675;SDS011;10999;51.332;9.458;2023-09-18T02:24:33;11.63;;;5.82;;
21675;SDS011;10999;51.332;9.458;2023-09-18T02:27:00;10.88;;;5.07;;
21675;SDS011;10999;51.332;9.458;2023-09-18T02:29:30;9.07;;;4.80;;
21675;SDS011;10999;51.332;9.458;2023-09-18T02:31:57;12.20;;;5.60;;
21675;SDS011;10999;51.332;9.458;2023-09-18T02:34:24;10.98;;;5.70;;
21675;SDS011;10999;51.332;9.458;2023-09-18T02:36:51;12.07;;;4.75;;
21675;SDS011;10999;51.332;9.458;2023-09-18T02:39:18;9.55;;;4.60;;
21675;SDS011;10999;51.332;9.458;2023-09-18T02:41:45;10.18;;;5.43;;
21675;SDS011;10999;51.332;9.458;2023-09-18T02:44:11;10.60;;;5.07;;
21675;SDS011;10999;51.332;9.458;2023-09-18T02:46:41;9.25;;;4.63;;
21675;SDS011;10999;51.332;9.458;2023-09-18T02:49:09;10.70;;;4.80;;
21675;SDS011;10999;51.332;9.458;2023-09-18T02:51:36;9.90;;;4.68;;
21675;SDS011;10999;51.332;9.458;2023-09-18T02:54:03;10.68;;;4.90;;
21675;SDS011;10999;51.332;9.458;2023-09-18T02:56:30;11.48;;;5.00;;
21675;SDS011;10999;51.332;9.458;2023-09-18T02:58:57;10.48;;;4.88;;
21675;SDS011;10999;51.332;9.458;2023-09-18T03:01:24;10.48;;;4.82;;
21675;SDS011;10999;51.332;9.458;2023-09-18T03:03:51;9.23;;;4.82;;
21675;SDS011;10999;51.332;9.458;2023-09-18T03:06:18;8.75;;;4.65;;
21675;SDS011;10999;51.332;9.458;2023-09-18T03:08:45;8.85;;;4.38;;
21675;SDS011;10999;51.332;9.458;2023-09-18T03:11:12;8.18;;;4.20;;
21675;SDS011;10999;51.332;9.458;2023-09-18T03:13:43;8.85;;;3.92;;
21675;SDS011;10999;51.332;9.458;2023-09-18T03:16:14;10.45;;;4.80;;
21675;SDS011;10999;51.332;9.458;2023-09-18T03:18:41;9.30;;;4.75;;
21675;SDS011;10999;51.332;9.458;2023-09-18T03:21:08;8.60;;;4.38;;
21675;SDS011;10999;51.332;9.458;2023-09-18T03:23:35;9.02;;;4.80;;
21675;SDS011;10999;51.332;9.458;2023-09-18T03:26:02;9.77;;;4.53;;
21675;SDS011;10999;51.332;9.458;2023-09-18T03:28:29;9.25;;;5.25;;
21675;SDS011;10999;51.332;9.458;2023-09-18T03:30:57;10.27;;;4.38;;
21675;SDS011;10999;51.332;9.458;2023-09-18T03:33:24;11.35;;;5.32;;
21675;SDS011;10999;51.332;9.458;2023-09-18T03:35:52;9.30;;;4.82;;
21675;SDS011;10999;51.332;9.458;2023-09-18T03:38:21;11.27;;;4.57;;
21675;SDS011;10999;51.332;9.458;2023-09-18T03:40:48;13.27;;;5.10;;
21675;SDS011;10999;51.332;9.458;2023-09-18T03:43:15;11.95;;;5.65;;
21675;SDS011;10999;51.332;9.458;2023-09-18T03:45:44;13.98;;;5.40;;
21675;SDS011;10999;51.332;9.458;2023-09-18T03:48:11;10.80;;;4.28;;
21675;SDS011;10999;51.332;9.458;2023-09-18T03:50:38;12.38;;;5.15;;
21675;SDS011;10999;51.332;9.458;2023-09-18T03:53:06;12.00;;;5.35;;
21675;SDS011;10999;51.332;9.458;2023-09-18T03:55:34;9.93;;;4.60;;
21675;SDS011;10999;51.332;9.458;2023-09-18T03:58:00;9.88;;;5.22;;
21675;SDS011;10999;51.332;9.458;2023-09-18T04:00:27;9.85;;;4.50;;
21675;SDS011;10999;51.332;9.458;2023-09-18T04:02:54;10.60;;;5.00;;
21675;SDS011;10999;51.332;9.458;2023-09-18T04:05:21;10.93;;;5.22;;
21675;SDS011;10999;51.332;9.458;2023-09-18T04:07:48;9.85;;;4.55;;
21675;SDS011;10999;51.332;9.458;2023-09-18T04:10:15;11.85;;;5.38;;
21675;SDS011;10999;51.332;9.458;2023-09-18T04:12:49;11.10;;;4.80;;
21675;SDS011;10999;51.332;9.458;2023-09-18T04:15:17;9.95;;;5.03;;
21675;SDS011;10999;51.332;9.458;2023-09-18T04:17:45;11.05;;;4.75;;
21675;SDS011;10999;51.332;9.458;2023-09-18T04:20:12;11.95;;;5.78;;
21675;SDS011;10999;51.332;9.458;2023-09-18T04:22:44;10.05;;;5.28;;
21675;SDS011;10999;51.332;9.458;2023-09-18T04:25:12;10.40;;;5.65;;
21675;SDS011;10999;51.332;9.458;2023-09-18T04:27:39;13.77;;;6.22;;
21675;SDS011;10999;51.332;9.458;2023-09-18T04:30:09;13.52;;;5.97;;
21675;SDS011;10999;51.332;9.458;2023-09-18T04:32:36;11.50;;;5.82;;
21675;SDS011;10999;51.332;9.458;2023-09-18T04:35:04;13.23;;;5.80;;
21675;SDS011;10999;51.332;9.458;2023-09-18T04:37:35;10.50;;;5.57;;
21675;SDS011;10999;51.332;9.458;2023-09-18T04:40:07;12.27;;;5.70;;
21675;SDS011;10999;51.332;9.458;2023-09-18T04:42:38;11.15;;;5.75;;
21675;SDS011;10999;51.332;9.458;2023-09-18T04:45:09;11.38;;;5.85;;
21675;SDS011;10999;51.332;9.458;2023-09-18T04:47:35;11.07;;;5.65;;
21675;SDS011;10999;51.332;9.458;2023-09-18T04:50:03;10.52;;;5.22;;
21675;SDS011;10999;51.332;9.458;2023-09-18T04:52:38;10.73;;;5.30;;
21675;SDS011;10999;51.332;9.458;2023-09-18T04:55:06;11.70;;;5.47;;
21675;SDS011;10999;51.332;9.458;2023-09-18T04:57:33;10.20;;;5.20;;
21675;SDS011;10999;51.332;9.458;2023-09-18T05:00:00;11.15;;;5.65;;
21675;SDS011;10999;51.332;9.458;2023-09-18T05:02:43;10.68;;;5.30;;
21675;SDS011;10999;51.332;9.458;2023-09-18T05:05:11;10.63;;;5.47;;
21675;SDS011;10999;51.332;9.458;2023-09-18T05:07:38;10.82;;;5.57;;
21675;SDS011;10999;51.332;9.458;2023-09-18T05:10:05;10.32;;;5.32;;
21675;SDS011;10999;51.332;9.458;2023-09-18T05:12:32;9.02;;;4.78;;
21675;SDS011;10999;51.332;9.458;2023-09-18T05:14:59;9.05;;;4.82;;
21675;SDS011;10999;51.332;9.458;2023-09-18T05:17:45;11.60;;;5.53;;
21675;SDS011;10999;51.332;9.458;2023-09-18T05:20:16;10.90;;;5.22;;
21675;SDS011;10999;51.332;9.458;2023-09-18T05:22:43;11.30;;;5.40;;
21675;SDS011;10999;51.332;9.458;2023-09-18T05:25:11;9.27;;;4.88;;
21675;SDS011;10999;51.332;9.458;2023-09-18T05:27:42;12.02;;;5.47;;
21675;SDS011;10999;51.332;9.458;2023-09-18T05:30:14;10.32;;;5.35;;
21675;SDS011;10999;51.332;9.458;2023-09-18T05:32:42;10.00;;;5.18;;
21675;SDS011;10999;51.332;9.458;2023-09-18T05:35:10;10.10;;;4.95;;
21675;SDS011;10999;51.332;9.458;2023-09-18T05:37:42;11.65;;;5.25;;
21675;SDS011;10999;51.332;9.458;2023-09-18T05:40:10;10.50;;;5.38;;
21675;SDS011;10999;51.332;9.458;2023-09-18T05:42:39;8.88;;;5.00;;
21675;SDS011;10999;51.332;9.458;2023-09-18T05:45:14;10.90;;;5.50;;
21675;SDS011;10999;51.332;9.458;2023-09-18T05:47:41;11.38;;;5.22;;
21675;SDS011;10999;51.332;9.458;2023-09-18T05:50:09;11.25;;;5.53;;
21675;SDS011;10999;51.332;9.458;2023-09-18T05:52:42;10.00;;;5.15;;
21675;SDS011;10999;51.332;9.458;2023-09-18T05:55:10;10.88;;;4.88;;
21675;SDS011;10999;51.332;9.458;2023-09-18T05:57:37;9.23;;;4.63;;
21675;SDS011;10999;51.332;9.458;2023-09-18T06:00:04;9.27;;;4.68;;
21675;SDS011;10999;51.332;9.458;2023-09-18T06:02:31;9.98;;;5.15;;
21675;SDS011;10999;51.332;9.458;2023-09-18T06:04:59;9.43;;;4.80;;
21675;SDS011;10999;51.332;9.458;2023-09-18T06:07:26;9.88;;;5.07;;
21675;SDS011;10999;51.332;9.458;2023-09-18T06:09:53;10.48;;;5.07;;
21675;SDS011;10999;51.332;9.458;2023-09-18T06:12:20;9.95;;;4.18;;
21675;SDS011;10999;51.332;9.458;2023-09-18T06:14:47;9.30;;;4.65;;
21675;SDS011;10999;51.332;9.458;2023-09-18T06:17:14;8.07;;;4.18;;
21675;SDS011;10999;51.332;9.458;2023-09-18T06:19:42;11.35;;;4.70;;
21675;SDS011;10999;51.332;9.458;2023-09-18T06:22:09;9.60;;;4.18;;
21675;SDS011;10999;51.332;9.458;2023-09-18T06:24:36;8.10;;;4.38;;
21675;SDS011;10999;51.332;9.458;2023-09-18T06:27:03;9.07;;;4.22;;
21675;SDS011;10999;51.332;9.458;2023-09-18T06:29:33;9.13;;;4.30;;
21675;SDS011;10999;51.332;9.458;2023-09-18T06:32:01;8.57;;;4.13;;
21675;SDS011;10999;51.332;9.458;2023-09-18T06:34:28;8.20;;;4.00;;
21675;SDS011;10999;51.332;9.458;2023-09-18T06:36:55;9.38;;;4.32;;
21675;SDS011;10999;51.332;9.458;2023-09-18T06:39:21;13.32;;;4.28;;
21675;SDS011;10999;51.332;9.458;2023-09-18T06:41:50;10.15;;;4.18;;
21675;SDS011;10999;51.332;9.458;2023-09-18T06:44:16;8.52;;;4.22;;
21675;SDS011;10999;51.332;9.458;2023-09-18T06:46:43;9.05;;;3.90;;
21675;SDS011;10999;51.332;9.458;2023-09-18T06:49:10;8.45;;;4.20;;
21675;SDS011;10999;51.332;9.458;2023-09-18T06:51:37;9.32;;;4.35;;
21675;SDS011;10999;51.332;9.458;2023-09-18T06:54:09;7.88;;;3.55;;
21675;SDS011;10999;51.332;9.458;2023-09-18T06:56:36;8.98;;;4.13;;
21675;SDS011;10999;51.332;9.458;2023-09-18T06:59:02;10.18;;;3.70;;
21675;SDS011;10999;51.332;9.458;2023-09-18T07:01:29;9.93;;;3.78;;
21675;SDS011;10999;51.332;9.458;2023-09-18T07:03:58;8.07;;;3.75;;
21675;SDS011;10999;51.332;9.458;2023-09-18T07:06:26;11.05;;;3.75;;
21675;SDS011;10999;51.332;9.458;2023-09-18T07:08:53;8.48;;;3.75;;
21675;SDS011;10999;51.332;9.458;2023-09-18T07:11:20;7.95;;;3.30;;
21675;SDS011;10999;51.332;9.458;2023-09-18T07:13:50;10.65;;;3.78;;
21675;SDS011;10999;51.332;9.458;2023-09-18T07:16:17;10.40;;;3.70;;
21675;SDS011;10999;51.332;9.458;2023-09-18T07:18:44;9.23;;;3.78;;
21675;SDS011;10999;51.332;9.458;2023-09-18T07:21:12;9.68;;;3.67;;
21675;SDS011;10999;51.332;9.458;2023-09-18T07:23:39;8.68;;;2.97;;
21675;SDS011;10999;51.332;9.458;2023-09-18T07:26:07;12.05;;;3.83;;
21675;SDS011;10999;51.332;9.458;2023-09-18T07:28:34;11.75;;;3.35;;
21675;SDS011;10999;51.332;9.458;2023-09-18T07:31:07;13.77;;;3.83;;
21675;SDS011;10999;51.332;9.458;2023-09-18T07:33:35;7.47;;;3.10;;
21675;SDS011;10999;51.332;9.458;2023-09-18T07:36:02;10.05;;;2.92;;
21675;SDS011;10999;51.332;9.458;2023-09-18T07:38:30;8.88;;;2.58;;
21675;SDS011;10999;51.332;9.458;2023-09-18T07:40:57;10.35;;;4.03;;
21675;SDS011;10999;51.332;9.458;2023-09-18T07:43:24;8.93;;;3.00;;
21675;SDS011;10999;51.332;9.458;2023-09-18T07:45:52;7.82;;;2.60;;
21675;SDS011;10999;51.332;9.458;2023-09-18T07:48:21;10.48;;;3.70;;
21675;SDS011;10999;51.332;9.458;2023-09-18T07:50:49;10.00;;;2.60;;
21675;SDS011;10999;51.332;9.458;2023-09-18T07:53:17;7.60;;;2.70;;
21675;SDS011;10999;51.332;9.458;2023-09-18T07:55:45;8.40;;;2.65;;
21675;SDS011;10999;51.332;9.458;2023-09-18T07:58:13;10.63;;;2.88;;
21675;SDS011;10999;51.332;9.458;2023-09-18T08:00:40;8.85;;;2.85;;
21675;SDS011;10999;51.332;9.458;2023-09-18T08:03:07;9.73;;;3.80;;
21675;SDS011;10999;51.332;9.458;2023-09-18T08:05:33;8.00;;;2.83;;
21675;SDS011;10999;51.332;9.458;2023-09-18T08:08:00;7.38;;;2.78;;
21675;SDS011;10999;51.332;9.458;2023-09-18T08:10:30;9.45;;;2.75;;
21675;SDS011;10999;51.332;9.458;2023-09-18T08:12:57;10.55;;;2.80;;
21675;SDS011;10999;51.332;9.458;2023-09-18T08:15:24;11.60;;;2.42;;
21675;SDS011;10999;51.332;9.458;2023-09-18T08:17:51;8.63;;;3.00;;
21675;SDS011;10999;51.332;9.458;2023-09-18T08:20:19;7.95;;;2.95;;
21675;SDS011;10999;51.332;9.458;2023-09-18T08:22:47;8.57;;;2.50;;
21675;SDS011;10999;51.332;9.458;2023-09-18T08:25:15;10.55;;;2.78;;
21675;SDS011;10999;51.332;9.458;2023-09-18T08:27:43;7.78;;;2.25;;
21675;SDS011;10999;51.332;9.458;2023-09-18T08:30:11;7.35;;;2.40;;
21675;SDS011;10999;51.332;9.458;2023-09-18T08:32:39;8.68;;;2.58;;
21675;SDS011;10999;51.332;9.458;2023-09-18T08:35:07;7.65;;;2.38;;
21675;SDS011;10999;51.332;9.458;2023-09-18T08:37:35;9.50;;;2.40;;
21675;SDS011;10999;51.332;9.458;2023-09-18T08:40:02;8.75;;;2.45;;
21675;SDS011;10999;51.332;9.458;2023-09-18T08:42:38;7.57;;;2.47;;
21675;SDS011;10999;51.332;9.458;2023-09-18T08:45:08;11.57;;;2.95;;
21675;SDS011;10999;51.332;9.458;2023-09-18T08:47:40;8.88;;;2.78;;
21675;SDS011;10999;51.332;9.458;2023-09-18T08:50:10;9.98;;;2.70;;
21675;SDS011;10999;51.332;9.458;2023-09-18T08:52:38;8.90;;;3.15;;
21675;SDS011;10999;51.332;9.458;2023-09-18T08:55:06;9.00;;;2.63;;
21675;SDS011;10999;51.332;9.458;2023-09-18T08:57:36;8.55;;;2.60;;
21675;SDS011;10999;51.332;9.458;2023-09-18T09:00:04;9.10;;;2.33;;
21675;SDS011;10999;51.332;9.458;2023-09-18T09:02:34;9.38;;;2.20;;
21675;SDS011;10999;51.332;9.458;2023-09-18T09:05:02;9.63;;;2.35;;
21675;SDS011;10999;51.332;9.458;2023-09-18T09:07:29;10.40;;;2.55;;
21675;SDS011;10999;51.332;9.458;2023-09-18T09:09:57;10.90;;;2.58;;
21675;SDS011;10999;51.332;9.458;2023-09-18T09:15:28;11.00;;;2.40;;
21675;SDS011;10999;51.332;9.458;2023-09-18T09:18:06;12.75;;;2.25;;
21675;SDS011;10999;51.332;9.458;2023-09-18T09:20:35;8.63;;;2.50;;
21675;SDS011;10999;51.332;9.458;2023-09-18T09:23:04;9.25;;;2.25;;
21675;SDS011;10999;51.332;9.458;2023-09-18T09:25:33;10.80;;;2.92;;
21675;SDS011;10999;51.332;9.458;2023-09-18T09:28:01;8.65;;;2.20;;
21675;SDS011;10999;51.332;9.458;2023-09-18T09:30:32;7.18;;;2.03;;
21675;SDS011;10999;51.332;9.458;2023-09-18T09:33:00;7.28;;;2.00;;
21675;SDS011;10999;51.332;9.458;2023-09-18T09:35:30;8.38;;;2.47;;
21675;SDS011;10999;51.332;9.458;2023-09-18T09:40:35;6.65;;;2.05;;
21675;SDS011;10999;51.332;9.458;2023-09-18T09:43:04;6.57;;;2.00;;
21675;SDS011;10999;51.332;9.458;2023-09-18T09:45:34;8.52;;;2.42;;
21675;SDS011;10999;51.332;9.458;2023-09-18T09:48:03;11.15;;;1.90;;
21675;SDS011;10999;51.332;9.458;2023-09-18T09:50:33;10.48;;;2.58;;
21675;SDS011;10999;51.332;9.458;2023-09-18T09:53:12;7.35;;;1.85;;
21675;SDS011;10999;51.332;9.458;2023-09-18T09:55:40;8.00;;;2.00;;
21675;SDS011;10999;51.332;9.458;2023-09-18T09:58:07;11.48;;;2.78;;
21675;SDS011;10999;51.332;9.458;2023-09-18T10:03:10;9.35;;;1.90;;
21675;SDS011;10999;51.332;9.458;2023-09-18T10:05:40;6.30;;;1.90;;
21675;SDS011;10999;51.332;9.458;2023-09-18T10:08:10;8.23;;;2.20;;
21675;SDS011;10999;51.332;9.458;2023-09-18T10:10:48;6.88;;;2.17;;
21675;SDS011;10999;51.332;9.458;2023-09-18T10:13:17;6.75;;;2.03;;
21675;SDS011;10999;51.332;9.458;2023-09-18T10:15:48;5.88;;;1.85;;
21675;SDS011;10999;51.332;9.458;2023-09-18T10:18:18;7.15;;;2.10;;
21675;SDS011;10999;51.332;9.458;2023-09-18T10:20:57;7.03;;;2.30;;
21675;SDS011;10999;51.332;9.458;2023-09-18T10:26:31;6.90;;;2.10;;
21675;SDS011;10999;51.332;9.458;2023-09-18T10:29:04;6.25;;;1.85;;
21675;SDS011;10999;51.332;9.458;2023-09-18T10:31:35;4.80;;;1.80;;
21675;SDS011;10999;51.332;9.458;2023-09-18T10:34:03;8.75;;;2.35;;
21675;SDS011;10999;51.332;9.458;2023-09-18T10:36:32;9.68;;;2.15;;
21675;SDS011;10999;51.332;9.458;2023-09-18T10:39:00;7.20;;;2.75;;
21675;SDS011;10999;51.332;9.458;2023-09-18T10:41:28;8.88;;;2.35;;
21675;SDS011;10999;51.332;9.458;2023-09-18T10:43:56;5.72;;;2.08;;
21675;SDS011;10999;51.332;9.458;2023-09-18T10:46:25;9.10;;;2.08;;
21675;SDS011;10999;51.332;9.458;2023-09-18T10:48:53;8.77;;;1.90;;
21675;SDS011;10999;51.332;9.458;2023-09-18T10:51:21;6.70;;;2.20;;
21675;SDS011;10999;51.332;9.458;2023-09-18T10:53:49;8.10;;;2.13;;
21675;SDS011;10999;51.332;9.458;2023-09-18T10:56:16;6.72;;;2.33;;
21675;SDS011;10999;51.332;9.458;2023-09-18T10:58:43;6.95;;;2.03;;
21675;SDS011;10999;51.332;9.458;2023-09-18T11:01:11;7.53;;;2.35;;
21675;SDS011;10999;51.332;9.458;2023-09-18T11:03:38;6.47;;;1.80;;
21675;SDS011;10999;51.332;9.458;2023-09-18T11:06:08;9.88;;;1.92;;
21675;SDS011;10999;51.332;9.458;2023-09-18T11:08:43;6.60;;;1.92;;
21675;SDS011;10999;51.332;9.458;2023-09-18T11:11:13;5.75;;;1.80;;
21675;SDS011;10999;51.332;9.458;2023-09-18T11:13:52;6.13;;;1.83;;
21675;SDS011;10999;51.332;9.458;2023-09-18T11:21:29;5.97;;;1.90;;
21675;SDS011;10999;51.332;9.458;2023-09-18T11:24:00;6.50;;;1.70;;
21675;SDS011;10999;51.332;9.458;2023-09-18T11:26:39;6.68;;;1.33;;
21675;SDS011;10999;51.332;9.458;2023-09-18T11:29:08;6.32;;;1.98;;
21675;SDS011;10999;51.332;9.458;2023-09-18T11:34:15;7.18;;;1.60;;
21675;SDS011;10999;51.332;9.458;2023-09-18T11:36:55;7.18;;;1.63;;
21675;SDS011;10999;51.332;9.458;2023-09-18T11:39:39;5.60;;;1.42;;
21675;SDS011;10999;51.332;9.458;2023-09-18T11:42:11;4.35;;;1.40;;
21675;SDS011;10999;51.332;9.458;2023-09-18T11:44:46;6.25;;;1.80;;
21675;SDS011;10999;51.332;9.458;2023-09-18T11:47:14;6.85;;;2.25;;
21675;SDS011;10999;51.332;9.458;2023-09-18T11:49:50;3.88;;;1.42;;
21675;SDS011;10999;51.332;9.458;2023-09-18T11:52:22;3.95;;;1.48;;
21675;SDS011;10999;51.332;9.458;2023-09-18T11:54:54;5.30;;;1.60;;
21675;SDS011;10999;51.332;9.458;2023-09-18T11:57:23;6.80;;;2.10;;
21675;SDS011;10999;51.332;9.458;2023-09-18T11:59:51;6.40;;;1.95;;
21675;SDS011;10999;51.332;9.458;2023-09-18T12:04:54;5.30;;;1.70;;
21675;SDS011;10999;51.332;9.458;2023-09-18T12:07:22;5.88;;;1.42;;
21675;SDS011;10999;51.332;9.458;2023-09-18T12:09:49;5.85;;;1.50;;
21675;SDS011;10999;51.332;9.458;2023-09-18T12:12:16;6.25;;;1.70;;
21675;SDS011;10999;51.332;9.458;2023-09-18T12:14:44;6.20;;;1.63;;
21675;SDS011;10999;51.332;9.458;2023-09-18T12:17:15;4.93;;;1.67;;
21675;SDS011;10999;51.332;9.458;2023-09-18T12:19:55;4.20;;;1.58;;
21675;SDS011;10999;51.332;9.458;2023-09-18T12:22:23;5.47;;;1.60;;
21675;SDS011;10999;51.332;9.458;2023-09-18T12:24:51;4.85;;;1.73;;
21675;SDS011;10999;51.332;9.458;2023-09-18T12:27:17;8.35;;;1.90;;
21675;SDS011;10999;51.332;9.458;2023-09-18T12:29:44;7.10;;;1.83;;
21675;SDS011;10999;51.332;9.458;2023-09-18T12:32:13;5.10;;;1.48;;
21675;SDS011;10999;51.332;9.458;2023-09-18T12:34:40;8.98;;;1.85;;
21675;SDS011;10999;51.332;9.458;2023-09-18T12:37:08;6.68;;;2.10;;
21675;SDS011;10999;51.332;9.458;2023-09-18T12:39:37;6.82;;;1.63;;
21675;SDS011;10999;51.332;9.458;2023-09-18T12:42:04;6.15;;;1.52;;
21675;SDS011;10999;51.332;9.458;2023-09-18T12:44:32;4.47;;;1.40;;
21675;SDS011;10999;51.332;9.458;2023-09-18T12:46:59;6.22;;;2.00;;
21675;SDS011;10999;51.332;9.458;2023-09-18T12:49:26;3.85;;;1.67;;
21675;SDS011;10999;51.332;9.458;2023-09-18T12:51:59;10.43;;;1.95;;
21675;SDS011;10999;51.332;9.458;2023-09-18T12:54:36;6.80;;;1.70;;
21675;SDS011;10999;51.332;9.458;2023-09-18T12:57:07;5.18;;;1.67;;
21675;SDS011;10999;51.332;9.458;2023-09-18T12:59:36;8.60;;;2.00;;
21675;SDS011;10999;51.332;9.458;2023-09-18T13:02:04;10.52;;;2.30;;
21675;SDS011;10999;51.332;9.458;2023-09-18T13:04:33;4.68;;;1.67;;
21675;SDS011;10999;51.332;9.458;2023-09-18T13:07:11;7.72;;;1.80;;
21675;SDS011;10999;51.332;9.458;2023-09-18T13:09:39;5.30;;;1.65;;
21675;SDS011;10999;51.332;9.458;2023-09-18T13:12:09;9.13;;;1.98;;
21675;SDS011;10999;51.332;9.458;2023-09-18T13:17:26;4.40;;;1.50;;
21675;SDS011;10999;51.332;9.458;2023-09-18T13:19:53;6.53;;;1.80;;
21675;SDS011;10999;51.332;9.458;2023-09-18T13:22:24;4.65;;;1.80;;
21675;SDS011;10999;51.332;9.458;2023-09-18T13:24:55;7.50;;;2.30;;
21675;SDS011;10999;51.332;9.458;2023-09-18T13:27:24;6.72;;;1.75;;
21675;SDS011;10999;51.332;9.458;2023-09-18T13:29:51;4.22;;;1.73;;
21675;SDS011;10999;51.332;9.458;2023-09-18T13:32:20;6.00;;;1.80;;
21675;SDS011;10999;51.332;9.458;2023-09-18T13:34:47;5.18;;;1.70;;
21675;SDS011;10999;51.332;9.458;2023-09-18T13:37:14;5.95;;;1.90;;
21675;SDS011;10999;51.332;9.458;2023-09-18T13:39:43;6.07;;;1.85;;
21675;SDS011;10999;51.332;9.458;2023-09-18T13:42:11;5.13;;;1.90;;
21675;SDS011;10999;51.332;9.458;2023-09-18T13:44:38;6.95;;;1.90;;
21675;SDS011;10999;51.332;9.458;2023-09-18T13:47:05;5.65;;;1.63;;
21675;SDS011;10999;51.332;9.458;2023-09-18T13:49:32;6.75;;;1.98;;
21675;SDS011;10999;51.332;9.458;2023-09-18T13:51:59;8.90;;;2.92;;
21675;SDS011;10999;51.332;9.458;2023-09-18T13:54:26;4.18;;;1.70;;
21675;SDS011;10999;51.332;9.458;2023-09-18T13:56:53;6.22;;;1.80;;
21675;SDS011;10999;51.332;9.458;2023-09-18T13:59:23;6.13;;;2.08;;
21675;SDS011;10999;51.332;9.458;2023-09-18T14:01:50;6.13;;;2.05;;
21675;SDS011;10999;51.332;9.458;2023-09-18T14:04:18;4.85;;;1.70;;
21675;SDS011;10999;51.332;9.458;2023-09-18T14:06:45;5.97;;;1.80;;
21675;SDS011;10999;51.332;9.458;2023-09-18T14:09:12;5.13;;;1.70;;
21675;SDS011;10999;51.332;9.458;2023-09-18T14:11:39;6.53;;;2.00;;
21675;SDS011;10999;51.332;9.458;2023-09-18T14:14:06;5.07;;;1.88;;
21675;SDS011;10999;51.332;9.458;2023-09-18T14:16:33;5.43;;;1.92;;
21675;SDS011;10999;51.332;9.458;2023-09-18T14:19:00;5.28;;;1.90;;
21675;SDS011;10999;51.332;9.458;2023-09-18T14:21:27;7.60;;;2.10;;
21675;SDS011;10999;51.332;9.458;2023-09-18T14:23:55;8.15;;;2.30;;
21675;SDS011;10999;51.332;9.458;2023-09-18T14:26:21;6.45;;;2.20;;
21675;SDS011;10999;51.332;9.458;2023-09-18T14:28:48;5.45;;;2.47;;
21675;SDS011;10999;51.332;9.458;2023-09-18T14:31:15;5.53;;;1.70;;
21675;SDS011;10999;51.332;9.458;2023-09-18T14:33:43;5.30;;;1.85;;
21675;SDS011;10999;51.332;9.458;2023-09-18T14:36:10;5.25;;;1.80;;
21675;SDS011;10999;51.332;9.458;2023-09-18T14:38:36;5.55;;;2.08;;
21675;SDS011;10999;51.332;9.458;2023-09-18T14:41:05;5.38;;;1.98;;
21675;SDS011;10999;51.332;9.458;2023-09-18T14:43:33;4.22;;;1.70;;
21675;SDS011;10999;51.332;9.458;2023-09-18T14:46:00;5.22;;;2.15;;
21675;SDS011;10999;51.332;9.458;2023-09-18T14:48:29;4.72;;;1.60;;
21675;SDS011;10999;51.332;9.458;2023-09-18T14:50:57;6.28;;;1.90;;
21675;SDS011;10999;51.332;9.458;2023-09-18T14:53:23;5.50;;;1.75;;
21675;SDS011;10999;51.332;9.458;2023-09-18T14:55:50;5.18;;;1.80;;
21675;SDS011;10999;51.332;9.458;2023-09-18T14:58:17;4.93;;;2.08;;
21675;SDS011;10999;51.332;9.458;2023-09-18T15:00:48;6.88;;;1.73;;
21675;SDS011;10999;51.332;9.458;2023-09-18T15:03:15;4.00;;;1.80;;
21675;SDS011;10999;51.332;9.458;2023-09-18T15:05:43;4.78;;;1.85;;
21675;SDS011;10999;51.332;9.458;2023-09-18T15:08:09;3.63;;;1.30;;
21675;SDS011;10999;51.332;9.458;2023-09-18T15:10:36;4.30;;;1.50;;
21675;SDS011;10999;51.332;9.458;2023-09-18T15:13:03;3.88;;;1.40;;
21675;SDS011;10999;51.332;9.458;2023-09-18T15:15:30;5.40;;;1.35;;
21675;SDS011;10999;51.332;9.458;2023-09-18T15:17:57;4.20;;;1.40;;
21675;SDS011;10999;51.332;9.458;2023-09-18T15:20:24;4.45;;;1.55;;